createdAt,value
2023-04-02T00:01:50.779Z,101417.78
2023-04-02T00:04:22.680Z,101416.16
2023-04-02T00:06:54.267Z,101429.25
2023-04-02T00:09:29.714Z,101424.16
2023-04-02T00:11:56.977Z,101431.91
2023-04-02T00:14:27.613Z,101436.66
2023-04-02T00:16:55.976Z,101434.00
2023-04-02T00:19:31.920Z,101437.44
2023-04-02T00:22:00.407Z,101437.91
2023-04-02T00:24:27.099Z,101436.47
2023-04-02T00:26:54.396Z,101448.19
2023-04-02T00:29:21.284Z,101453.50
2023-04-02T00:31:50.301Z,101444.94
2023-04-02T00:34:33.360Z,101457.28
2023-04-02T00:37:00.051Z,101467.09
2023-04-02T00:39:30.593Z,101469.75
2023-04-02T00:42:04.772Z,101477.72
2023-04-02T00:44:38.427Z,101487.78
2023-04-02T00:47:14.883Z,101489.63
2023-04-02T00:49:41.992Z,101493.34
2023-04-02T00:52:13.834Z,101492.13
2023-04-02T00:55:00.997Z,101497.47
2023-04-02T00:57:28.108Z,101507.31
2023-04-02T01:00:19.109Z,101509.38
2023-04-02T01:03:16.154Z,101515.72
2023-04-02T01:05:48.233Z,101523.69
2023-04-02T01:08:57.537Z,101521.84
2023-04-02T01:11:41.932Z,101529.81
2023-04-02T01:14:36.006Z,101529.81
2023-04-02T01:17:11.240Z,101538.88
2023-04-02T01:19:58.489Z,101539.06
2023-04-02T01:22:42.561Z,101544.81
2023-04-02T01:25:17.676Z,101556.97
2023-04-02T01:27:52.354Z,101555.31
2023-04-02T01:30:19.874Z,101555.31
2023-04-02T01:32:47.261Z,101557.38
2023-04-02T01:35:14.039Z,101566.63
2023-04-02T01:37:52.581Z,101568.03
2023-04-02T01:40:35.988Z,101566.75
2023-04-02T01:43:26.891Z,101576.59
2023-04-02T01:45:53.289Z,101582.59
2023-04-02T01:48:24.575Z,101589.13
2023-04-02T01:50:52.822Z,101581.97
2023-04-02T01:53:21.601Z,101585.88
2023-04-02T01:55:53.105Z,101599.41
2023-04-02T01:58:26.099Z,101604.13
2023-04-02T02:01:09.327Z,101603.75
2023-04-02T02:03:36.613Z,101620.72
2023-04-02T02:06:05.624Z,101622.59
2023-04-02T02:09:01.263Z,101626.69
2023-04-02T02:11:30.601Z,101629.97
2023-04-02T02:14:02.525Z,101630.16
2023-04-02T02:16:31.946Z,101637.97
2023-04-02T02:19:02.509Z,101639.28
2023-04-02T02:21:28.817Z,101651.34
2023-04-02T02:23:56.310Z,101652.38
2023-04-02T02:26:27.096Z,101648.50
2023-04-02T02:28:56.739Z,101658.97
2023-04-02T02:31:29.925Z,101659.59
2023-04-02T02:34:02.381Z,101664.53
2023-04-02T02:36:40.044Z,101671.50
2023-04-02T02:39:20.277Z,101671.72
2023-04-02T02:41:56.174Z,101673.78
2023-04-02T02:44:28.676Z,101683.00
2023-04-02T02:47:06.052Z,101686.06
2023-04-02T02:49:36.077Z,101681.56
2023-04-02T02:52:08.465Z,101692.81
2023-04-02T02:54:42.198Z,101706.31
2023-04-02T02:57:13.821Z,101710.00
2023-04-02T02:59:42.372Z,101714.28
2023-04-02T03:02:09.076Z,101720.63
2023-04-02T03:04:36.278Z,101725.56
2023-04-02T03:07:05.917Z,101719.81
2023-04-02T03:09:39.157Z,101740.47
2023-04-02T03:12:37.863Z,101741.06
2023-04-02T03:15:32.032Z,101744.97
2023-04-02T03:18:15.270Z,101757.44
2023-04-02T03:20:52.587Z,101759.69
2023-04-02T03:23:35.199Z,101762.56
2023-04-02T03:26:04.254Z,101772.38
2023-04-02T03:28:39.360Z,101772.56
2023-04-02T03:31:10.771Z,101783.59
2023-04-02T03:33:46.000Z,101776.47
2023-04-02T03:36:23.234Z,101800.59
2023-04-02T03:39:05.908Z,101798.50
2023-04-02T03:41:45.203Z,101796.06
2023-04-02T03:44:22.008Z,101805.28
2023-04-02T03:46:57.411Z,101817.72
2023-04-02T03:49:31.296Z,101826.94
2023-04-02T03:52:10.985Z,101828.97
2023-04-02T03:54:38.371Z,101831.84
2023-04-02T03:57:09.346Z,101837.75
2023-04-02T03:59:48.662Z,101841.22
2023-04-02T04:02:26.906Z,101844.28
2023-04-02T04:04:55.679Z,101848.38
2023-04-02T04:07:36.404Z,101853.47
2023-04-02T04:10:04.520Z,101859.00
2023-04-02T04:12:39.830Z,101863.28
2023-04-02T04:15:06.390Z,101870.44
2023-04-02T04:17:38.503Z,101886.34
2023-04-02T04:20:22.159Z,101880.25
2023-04-02T04:22:55.935Z,101887.97
2023-04-02T04:25:30.285Z,101907.59
2023-04-02T04:28:13.794Z,101907.81
2023-04-02T04:30:52.793Z,101905.75
2023-04-02T04:33:26.020Z,101923.28
2023-04-02T04:36:01.405Z,101927.78
2023-04-02T04:38:39.184Z,101931.06
2023-04-02T04:41:13.166Z,101934.09
2023-04-02T04:43:52.262Z,101941.84
2023-04-02T04:46:25.984Z,101944.50
2023-04-02T04:49:00.515Z,101947.75
2023-04-02T04:51:37.220Z,101950.41
2023-04-02T04:54:03.694Z,101962.47
2023-04-02T04:56:32.267Z,101958.56
2023-04-02T04:59:18.307Z,101964.88
2023-04-02T05:01:55.686Z,101982.81
2023-04-02T05:04:29.051Z,101988.13
2023-04-02T05:07:07.299Z,101999.53
2023-04-02T05:09:40.327Z,101989.69
2023-04-02T05:12:22.268Z,102008.19
2023-04-02T05:15:01.440Z,102012.78
2023-04-02T05:17:46.435Z,102022.09
2023-04-02T05:20:21.289Z,102032.25
2023-04-02T05:23:09.435Z,102036.31
2023-04-02T05:25:37.810Z,102045.66
2023-04-02T05:28:19.272Z,102050.09
2023-04-02T05:31:08.945Z,102050.03
2023-04-02T05:33:36.458Z,102048.94
2023-04-02T05:36:12.650Z,102068.69
2023-04-02T05:38:46.327Z,102066.19
2023-04-02T05:41:36.801Z,102073.84
2023-04-02T05:44:12.870Z,102078.72
2023-04-02T05:46:49.022Z,102087.66
2023-04-02T05:49:42.374Z,102090.63
2023-04-02T05:52:15.838Z,102088.91
2023-04-02T05:55:04.936Z,102098.47
2023-04-02T05:57:44.594Z,102119.13
2023-04-02T06:00:23.529Z,102112.44
2023-04-02T06:03:00.941Z,102122.59
2023-04-02T06:05:36.170Z,102127.47
2023-04-02T06:08:11.229Z,102135.56
2023-04-02T06:10:48.879Z,102141.69
2023-04-02T06:13:19.670Z,102153.47
2023-04-02T06:15:47.906Z,102161.06
2023-04-02T06:18:24.924Z,102174.75
2023-04-02T06:20:51.775Z,102179.59
2023-04-02T06:23:24.378Z,102186.88
2023-04-02T06:26:09.928Z,102187.53
2023-04-02T06:28:46.567Z,102192.84
2023-04-02T06:31:27.687Z,102186.16
2023-04-02T06:33:56.213Z,102197.22
2023-04-02T06:36:25.799Z,102208.25
2023-04-02T06:38:57.501Z,102208.72
2023-04-02T06:41:24.784Z,102219.50
2023-04-02T06:43:56.569Z,102217.22
2023-04-02T06:46:44.612Z,102218.03
2023-04-02T06:49:17.411Z,102222.78
2023-04-02T06:51:45.875Z,102224.53
2023-04-02T06:54:15.580Z,102224.97
2023-04-02T06:56:46.664Z,102236.09
2023-04-02T06:59:14.715Z,102241.59
2023-04-02T07:01:51.857Z,102240.38
2023-04-02T07:04:20.395Z,102253.63
2023-04-02T07:06:47.054Z,102260.22
2023-04-02T07:09:13.572Z,102263.69
2023-04-02T07:11:39.945Z,102270.81
2023-04-02T07:14:06.426Z,102281.72
2023-04-02T07:16:34.486Z,102278.22
2023-04-02T07:19:01.095Z,102296.59
2023-04-02T07:21:27.671Z,102298.41
2023-04-02T07:23:54.506Z,102304.38
2023-04-02T07:26:25.265Z,102306.09
2023-04-02T07:28:51.657Z,102312.66
2023-04-02T07:31:21.443Z,102327.94
2023-04-02T07:33:47.980Z,102323.56
2023-04-02T07:36:17.292Z,102326.94
2023-04-02T07:38:44.015Z,102334.88
2023-04-02T07:41:11.222Z,102340.53
2023-04-02T07:43:38.461Z,102338.38
2023-04-02T07:46:05.834Z,102343.69
2023-04-02T07:48:32.651Z,102348.06
2023-04-02T07:51:00.492Z,102345.31
2023-04-02T07:53:34.220Z,102355.16
2023-04-02T07:56:02.909Z,102360.28
2023-04-02T07:58:30.821Z,102352.97
2023-04-02T08:00:57.901Z,102358.38
2023-04-02T08:03:24.535Z,102357.81
2023-04-02T08:05:53.041Z,102358.47
2023-04-02T08:08:20.830Z,102365.56
2023-04-02T08:10:48.065Z,102370.88
2023-04-02T08:13:16.120Z,102376.09
2023-04-02T08:15:42.769Z,102376.66
2023-04-02T08:18:10.006Z,102378.94
2023-04-02T08:20:36.862Z,102381.03
2023-04-02T08:23:03.671Z,102390.38
2023-04-02T08:25:30.306Z,102394.09
2023-04-02T08:27:56.888Z,102397.31
2023-04-02T08:30:23.357Z,102408.47
2023-04-02T08:32:49.898Z,102416.50
2023-04-02T08:35:17.035Z,102418.78
2023-04-02T08:37:43.692Z,102427.75
2023-04-02T08:40:34.132Z,102436.53
2023-04-02T08:43:17.859Z,102437.16
2023-04-02T08:46:10.666Z,102439.00
2023-04-02T08:48:42.580Z,102443.84
2023-04-02T08:51:22.734Z,102444.72
2023-04-02T08:53:50.384Z,102458.63
2023-04-02T08:56:29.168Z,102455.06
2023-04-02T08:59:03.334Z,102470.03
2023-04-02T09:02:01.803Z,102475.69
2023-04-02T09:04:28.522Z,102475.44
2023-04-02T09:06:56.606Z,102476.88
2023-04-02T09:09:24.422Z,102486.78
2023-04-02T09:12:04.315Z,102487.47
2023-04-02T09:14:38.416Z,102483.75
2023-04-02T09:17:12.782Z,102495.88
2023-04-02T09:19:44.438Z,102500.50
2023-04-02T09:22:29.394Z,102496.13
2023-04-02T09:24:58.456Z,102497.00
2023-04-02T09:27:28.258Z,102509.91
2023-04-02T09:30:06.644Z,102519.81
2023-04-02T09:32:49.640Z,102508.41
2023-04-02T09:35:26.930Z,102528.13
2023-04-02T09:38:08.909Z,102526.41
2023-04-02T09:40:43.043Z,102540.81
2023-04-02T09:43:13.490Z,102542.28
2023-04-02T09:45:42.910Z,102535.75
2023-04-02T09:48:22.848Z,102541.75
2023-04-02T09:50:49.394Z,102537.41
2023-04-02T09:53:29.908Z,102527.66
2023-04-02T09:56:12.689Z,102533.84
2023-04-02T09:58:41.038Z,102529.78
2023-04-02T10:01:29.398Z,102535.84
2023-04-02T10:03:56.463Z,102548.84
2023-04-02T10:06:23.058Z,102545.66
2023-04-02T10:08:49.494Z,102544.84
2023-04-02T10:11:46.437Z,102554.72
2023-04-02T10:14:22.909Z,102563.09
2023-04-02T10:16:58.166Z,102553.94
2023-04-02T10:19:52.253Z,102552.84
2023-04-02T10:22:21.602Z,102563.78
2023-04-02T10:24:48.893Z,102560.41
2023-04-02T10:27:29.306Z,102572.56
2023-04-02T10:30:14.504Z,102559.19
2023-04-02T10:32:46.656Z,102561.53
2023-04-02T10:35:41.651Z,102558.16
2023-04-02T10:38:19.185Z,102566.47
2023-04-02T10:44:16.744Z,102564.72
2023-04-02T10:46:52.006Z,102582.16
2023-04-02T10:49:27.654Z,102577.59
2023-04-02T10:52:25.021Z,102572.38
2023-04-02T10:55:04.482Z,102569.19
2023-04-02T10:57:38.779Z,102569.16
2023-04-02T11:00:16.552Z,102573.06
2023-04-02T11:03:07.282Z,102578.59
2023-04-02T11:05:45.618Z,102581.28
2023-04-02T11:08:22.897Z,102586.28
2023-04-02T11:10:56.666Z,102585.94
2023-04-02T11:13:31.148Z,102589.31
2023-04-02T11:15:57.889Z,102596.75
2023-04-02T11:18:28.580Z,102591.38
2023-04-02T11:20:58.254Z,102600.97
2023-04-02T11:23:29.354Z,102600.47
2023-04-02T11:26:27.769Z,102599.06
2023-04-02T11:29:13.760Z,102595.59
2023-04-02T11:31:41.208Z,102606.72
2023-04-02T11:34:34.753Z,102616.28
2023-04-02T11:37:03.470Z,102618.59
2023-04-02T11:39:53.423Z,102626.22
2023-04-02T11:42:19.774Z,102621.22
2023-04-02T11:44:46.150Z,102626.25
2023-04-02T11:47:18.353Z,102626.34
2023-04-02T11:50:04.639Z,102618.78
2023-04-02T11:52:38.062Z,102633.47
2023-04-02T11:55:20.349Z,102633.06
2023-04-02T11:57:55.753Z,102635.31
2023-04-02T12:00:47.286Z,102634.03
2023-04-02T12:03:32.344Z,102633.63
2023-04-02T12:06:13.271Z,102640.72
2023-04-02T12:09:05.928Z,102646.88
2023-04-02T12:11:35.043Z,102640.22
2023-04-02T12:14:06.717Z,102649.69
2023-04-02T12:16:34.744Z,102647.63
2023-04-02T12:19:01.484Z,102655.16
2023-04-02T12:21:29.444Z,102654.16
2023-04-02T12:23:59.048Z,102652.38
2023-04-02T12:26:30.270Z,102659.81
2023-04-02T12:29:21.762Z,102661.44
2023-04-02T12:31:48.457Z,102657.44
2023-04-02T12:34:17.869Z,102662.78
2023-04-02T12:37:00.041Z,102672.66
2023-04-02T12:39:28.353Z,102669.25
2023-04-02T12:41:55.832Z,102659.44
2023-04-02T12:44:27.623Z,102662.72
2023-04-02T12:46:54.722Z,102666.69
2023-04-02T12:49:43.761Z,102666.34
2023-04-02T12:52:16.759Z,102675.03
2023-04-02T12:54:46.927Z,102671.19
2023-04-02T12:57:40.223Z,102675.44
2023-04-02T13:00:22.042Z,102687.72
2023-04-02T13:02:50.596Z,102679.78
2023-04-02T13:05:35.810Z,102679.19
2023-04-02T13:08:03.680Z,102681.66
2023-04-02T13:10:30.295Z,102680.56
2023-04-02T13:12:59.711Z,102685.56
2023-04-02T13:15:32.033Z,102686.44
2023-04-02T13:18:22.010Z,102694.59
2023-04-02T13:21:05.560Z,102687.34
2023-04-02T13:23:32.579Z,102696.03
2023-04-02T13:26:26.254Z,102688.84
2023-04-02T13:29:25.021Z,102686.88
2023-04-02T13:31:53.497Z,102686.22
2023-04-02T13:34:20.350Z,102701.91
2023-04-02T13:36:47.144Z,102692.63
2023-04-02T13:39:14.081Z,102691.09
2023-04-02T13:41:45.636Z,102687.03
2023-04-02T13:44:20.205Z,102694.66
2023-04-02T13:46:46.959Z,102688.00
2023-04-02T13:49:13.398Z,102695.31
2023-04-02T13:51:46.897Z,102706.75
2023-04-02T13:54:46.824Z,102699.38
2023-04-02T13:57:14.218Z,102694.09
2023-04-02T13:59:40.720Z,102698.63
2023-04-02T14:02:17.673Z,102707.03
2023-04-02T14:05:03.825Z,102711.88
2023-04-02T14:07:38.080Z,102703.69
2023-04-02T14:10:32.490Z,102710.53
2023-04-02T14:13:32.795Z,102714.38
2023-04-02T14:16:31.692Z,102710.59
2023-04-02T14:19:27.948Z,102721.72
2023-04-02T14:22:21.928Z,102714.59
2023-04-02T14:25:07.890Z,102720.84
2023-04-02T14:27:52.682Z,102726.03
2023-04-02T14:30:48.790Z,102721.41
2023-04-02T14:33:49.229Z,102731.50
2023-04-02T14:36:23.957Z,102733.00
2023-04-02T14:39:09.111Z,102735.94
2023-04-02T14:41:53.753Z,102737.59
2023-04-02T14:44:25.343Z,102733.91
2023-04-02T14:46:58.550Z,102743.56
2023-04-02T14:49:31.344Z,102748.38
2023-04-02T14:52:06.257Z,102747.25
2023-04-02T14:55:02.178Z,102751.72
2023-04-02T14:57:37.469Z,102752.03
2023-04-02T15:00:20.409Z,102750.91
2023-04-02T15:02:53.115Z,102740.78
2023-04-02T15:05:28.053Z,102744.78
2023-04-02T15:08:15.536Z,102757.78
2023-04-02T15:10:50.230Z,102752.06
2023-04-02T15:13:22.280Z,102756.16
2023-04-02T15:15:57.114Z,102764.03
2023-04-02T15:18:25.409Z,102765.53
2023-04-02T15:20:57.671Z,102763.19
2023-04-02T15:23:55.917Z,102768.28
2023-04-02T15:26:41.802Z,102777.56
2023-04-02T15:29:37.902Z,102762.75
2023-04-02T15:32:27.633Z,102768.91
2023-04-02T15:35:14.696Z,102765.16
2023-04-02T15:38:08.779Z,102769.16
2023-04-02T15:40:48.586Z,102772.00
2023-04-02T15:43:37.181Z,102778.44
2023-04-02T15:46:23.015Z,102787.81
2023-04-02T15:49:07.771Z,102782.72
2023-04-02T15:52:05.646Z,102779.00
2023-04-02T15:54:56.707Z,102773.78
2023-04-02T15:57:50.343Z,102785.09
2023-04-02T16:00:33.382Z,102785.09
2023-04-02T16:03:24.974Z,102779.38
2023-04-02T16:06:18.787Z,102771.78
2023-04-02T16:08:57.202Z,102781.69
2023-04-02T16:11:24.884Z,102788.97
2023-04-02T16:13:59.243Z,102791.50
2023-04-02T16:16:32.998Z,102795.06
2023-04-02T16:19:20.933Z,102809.34
2023-04-02T16:22:24.619Z,102801.03
2023-04-02T16:25:00.765Z,102804.09
2023-04-02T16:27:31.674Z,102808.25
2023-04-02T16:30:43.326Z,102806.69
2023-04-02T16:33:28.692Z,102817.91
2023-04-02T16:36:26.673Z,102814.06
2023-04-02T16:39:03.337Z,102814.22
2023-04-02T16:41:50.858Z,102820.66
2023-04-02T16:44:31.030Z,102828.63
2023-04-02T16:47:18.333Z,102836.56
2023-04-02T16:50:03.259Z,102835.16
2023-04-02T16:52:39.769Z,102840.66
2023-04-02T16:55:29.472Z,102850.00
2023-04-02T16:58:26.402Z,102853.75
2023-04-02T17:01:04.837Z,102855.97
2023-04-02T17:03:46.577Z,102854.88
2023-04-02T17:06:13.000Z,102863.72
2023-04-02T17:08:43.731Z,102869.00
2023-04-02T17:11:22.923Z,102872.06
2023-04-02T17:14:05.806Z,102875.25
2023-04-02T17:16:42.986Z,102885.75
2023-04-02T17:19:12.528Z,102892.16
2023-04-02T17:21:42.301Z,102893.28
2023-04-02T17:24:25.530Z,102895.38
2023-04-02T17:26:58.489Z,102893.00
2023-04-02T17:29:48.108Z,102897.78
2023-04-02T17:32:21.678Z,102898.75
2023-04-02T17:34:48.147Z,102909.72
2023-04-02T17:37:39.637Z,102909.78
2023-04-02T17:40:22.782Z,102906.75
2023-04-02T17:42:52.134Z,102914.94
2023-04-02T17:45:34.954Z,102922.66
2023-04-02T17:48:16.485Z,102918.06
2023-04-02T17:51:10.969Z,102924.84
2023-04-02T17:53:44.430Z,102933.06
2023-04-02T17:56:28.790Z,102937.97
2023-04-02T17:59:16.275Z,102943.22
2023-04-02T18:01:46.827Z,102947.06
2023-04-02T18:04:26.767Z,102948.63
2023-04-02T18:06:53.046Z,102957.50
2023-04-02T18:09:39.300Z,102959.81
2023-04-02T18:12:16.091Z,102961.25
2023-04-02T18:15:00.529Z,102965.63
2023-04-02T18:17:29.917Z,102965.00
2023-04-02T18:20:28.682Z,102968.97
2023-04-02T18:23:26.647Z,102975.38
2023-04-02T18:26:18.766Z,102975.81
2023-04-02T18:29:11.478Z,102982.19
2023-04-02T18:32:08.538Z,102988.63
2023-04-02T18:34:52.775Z,102989.22
2023-04-02T18:37:28.075Z,103003.63
2023-04-02T18:40:19.412Z,103004.44
2023-04-02T18:43:08.654Z,103004.84
2023-04-02T18:45:56.227Z,103004.44
2023-04-02T18:48:40.818Z,103012.44
2023-04-02T18:51:15.477Z,103007.09
2023-04-02T18:53:43.134Z,103014.88
2023-04-02T18:56:19.677Z,103019.63
2023-04-02T18:58:49.420Z,103023.06
2023-04-02T19:01:22.367Z,103033.72
2023-04-02T19:03:52.476Z,103032.25
2023-04-02T19:06:25.635Z,103040.03
2023-04-02T19:08:59.547Z,103038.75
2023-04-02T19:11:31.089Z,103046.72
2023-04-02T19:14:13.785Z,103052.69
2023-04-02T19:16:59.085Z,103062.25
2023-04-02T19:19:28.153Z,103067.38
2023-04-02T19:22:08.557Z,103071.47
2023-04-02T19:24:41.374Z,103082.16
2023-04-02T19:27:47.862Z,103080.03
2023-04-02T19:30:29.240Z,103078.94
2023-04-02T19:33:26.817Z,103083.66
2023-04-02T19:36:03.116Z,103078.31
2023-04-02T19:38:41.565Z,103087.72
2023-04-02T19:41:36.185Z,103088.06
2023-04-02T19:44:02.794Z,103093.09
2023-04-02T19:46:29.381Z,103094.06
2023-04-02T19:49:04.685Z,103098.13
2023-04-02T19:51:31.187Z,103099.91
2023-04-02T19:53:57.602Z,103106.00
2023-04-02T19:56:24.013Z,103102.50
2023-04-02T19:58:50.664Z,103110.25
2023-04-02T20:01:17.151Z,103105.75
2023-04-02T20:03:43.744Z,103109.59
2023-04-02T20:06:10.518Z,103108.09
2023-04-02T20:08:36.992Z,103116.00
2023-04-02T20:11:03.507Z,103116.94
2023-04-02T20:13:29.950Z,103116.59
2023-04-02T20:16:01.295Z,103115.50
2023-04-02T20:18:28.741Z,103113.31
2023-04-02T20:20:55.380Z,103121.50
2023-04-02T20:23:21.902Z,103121.06
2023-04-02T20:25:53.158Z,103123.25
2023-04-02T20:28:23.660Z,103129.53
2023-04-02T20:30:51.212Z,103132.91
2023-04-02T20:33:19.320Z,103138.78
2023-04-02T20:35:45.912Z,103139.50
2023-04-02T20:38:12.699Z,103145.38
2023-04-02T20:40:41.381Z,103152.91
2023-04-02T20:43:08.979Z,103154.13
2023-04-02T20:45:36.075Z,103162.97
2023-04-02T20:48:03.359Z,103150.84
2023-04-02T20:50:30.119Z,103154.25
2023-04-02T20:52:59.979Z,103160.28
2023-04-02T20:55:26.370Z,103165.97
2023-04-02T20:57:53.747Z,103168.00
2023-04-02T21:00:20.982Z,103165.22
2023-04-02T21:02:47.361Z,103175.22
2023-04-02T21:05:13.963Z,103172.25
2023-04-02T21:07:40.452Z,103174.63
2023-04-02T21:10:07.348Z,103180.50
2023-04-02T21:12:33.749Z,103187.16
2023-04-02T21:15:02.468Z,103181.25
2023-04-02T21:17:29.687Z,103186.72
2023-04-02T21:19:56.142Z,103201.09
2023-04-02T21:22:22.758Z,103196.78
2023-04-02T21:24:49.276Z,103198.13
2023-04-02T21:27:16.689Z,103203.81
2023-04-02T21:29:43.058Z,103204.97
2023-04-02T21:32:20.967Z,103204.03
2023-04-02T21:34:48.410Z,103212.34
2023-04-02T21:37:14.930Z,103209.22
2023-04-02T21:39:41.478Z,103217.53
2023-04-02T21:42:07.936Z,103217.88
2023-04-02T21:44:34.338Z,103212.59
2023-04-02T21:47:00.861Z,103206.81
2023-04-02T21:49:27.888Z,103219.59
2023-04-02T21:51:54.292Z,103221.75
2023-04-02T21:54:21.113Z,103222.47
2023-04-02T21:56:48.838Z,103214.16
2023-04-02T21:59:17.175Z,103219.47
2023-04-02T22:01:46.811Z,103221.84
2023-04-02T22:04:22.059Z,103215.84
2023-04-02T22:06:49.151Z,103215.34
2023-04-02T22:09:18.669Z,103214.72
2023-04-02T22:11:50.709Z,103216.84
2023-04-02T22:14:17.303Z,103224.81
2023-04-02T22:16:43.838Z,103224.53
2023-04-02T22:19:13.682Z,103217.88
2023-04-02T22:21:41.043Z,103221.06
2023-04-02T22:24:09.331Z,103219.91
2023-04-02T22:26:36.451Z,103229.19
2023-04-02T22:29:03.298Z,103233.69
2023-04-02T22:31:33.207Z,103225.19
2023-04-02T22:34:00.899Z,103221.41
2023-04-02T22:36:28.658Z,103235.19
2023-04-02T22:38:56.831Z,103230.19
2023-04-02T22:41:32.797Z,103229.03
2023-04-02T22:44:00.906Z,103232.19
2023-04-02T22:46:28.922Z,103233.38
2023-04-02T22:48:56.218Z,103232.88
2023-04-02T22:51:24.660Z,103239.50
2023-04-02T22:53:53.775Z,103238.16
2023-04-02T22:56:22.780Z,103238.34
2023-04-02T22:58:49.578Z,103242.16
2023-04-02T23:01:26.029Z,103242.97
2023-04-02T23:03:54.451Z,103249.94
2023-04-02T23:06:22.132Z,103243.28
2023-04-02T23:08:48.545Z,103247.13
2023-04-02T23:11:17.609Z,103252.56
2023-04-02T23:13:44.904Z,103251.41
2023-04-02T23:16:13.854Z,103255.22
2023-04-02T23:18:42.418Z,103250.22
2023-04-02T23:21:09.820Z,103248.88
2023-04-02T23:23:36.285Z,103253.53
2023-04-02T23:26:10.010Z,103250.53
2023-04-02T23:28:38.006Z,103255.34
2023-04-02T23:31:06.800Z,103257.50
2023-04-02T23:33:34.216Z,103255.28
2023-04-02T23:36:00.760Z,103255.63
2023-04-02T23:38:27.476Z,103259.59
2023-04-02T23:40:53.967Z,103263.72
2023-04-02T23:43:20.718Z,103263.22
2023-04-02T23:45:51.516Z,103265.00
2023-04-02T23:48:18.053Z,103261.69
2023-04-02T23:50:45.448Z,103267.16
2023-04-02T23:53:13.074Z,103268.31
2023-04-02T23:55:40.407Z,103256.53
2023-04-02T23:58:06.900Z,103266.47
